Time;durP1;ratioP1;P1;durP2;ratioP2;P2;SDS_P1;SDS_P2;PMS_P1;PMS_P2;Temp;Humidity;BMP_temperature;BMP_pressure;BME280_temperature;BME280_humidity;BME280_pressure;Samples;Min_cycle;Max_cycle;Signal;HPM_P1;HPM_P2
2024/03/19 00:00:36;;;;;;;2.13;2.00;;;8.40;99.90;;;;;;5045839;28;20282;-73
2024/03/19 00:03:03;;;;;;;2.60;2.50;;;8.40;99.90;;;;;;5049062;28;20250;-75
2024/03/19 00:05:30;;;;;;;2.55;2.45;;;8.40;99.90;;;;;;5049422;28;20220;-73
2024/03/19 00:07:57;;;;;;;3.15;2.95;;;8.40;99.90;;;;;;5043204;28;20251;-74
2024/03/19 00:10:26;;;;;;;3.03;2.70;;;8.40;99.90;;;;;;5022661;28;20237;-78
2024/03/19 00:12:53;;;;;;;2.65;2.45;;;8.40;99.90;;;;;;5040309;28;20908;-76
2024/03/19 00:15:22;;;;;;;2.53;2.42;;;8.50;99.90;;;;;;5047625;28;20316;-76
2024/03/19 00:17:50;;;;;;;2.60;2.50;;;8.50;99.90;;;;;;5042274;28;20217;-74
2024/03/19 00:20:17;;;;;;;2.65;2.55;;;8.50;99.90;;;;;;5025480;28;20273;-73
2024/03/19 00:22:45;;;;;;;2.50;2.40;;;8.50;99.90;;;;;;5048028;28;20231;-76
2024/03/19 00:25:12;;;;;;;2.80;2.17;;;8.50;99.90;;;;;;5050328;28;20630;-75
2024/03/19 00:27:40;;;;;;;2.53;2.40;;;8.50;99.90;;;;;;5024193;28;20302;-74
2024/03/19 00:30:10;;;;;;;2.50;2.40;;;8.50;99.90;;;;;;5047136;28;20289;-76
2024/03/19 00:32:39;;;;;;;2.30;2.20;;;8.50;99.90;;;;;;5029961;28;20219;-80
2024/03/19 00:35:09;;;;;;;2.45;2.33;;;8.50;99.90;;;;;;5049324;28;20238;-75
2024/03/19 00:37:39;;;;;;;2.28;1.88;;;8.50;99.90;;;;;;5044001;28;20318;-79
2024/03/19 00:40:10;;;;;;;2.63;2.42;;;8.40;99.90;;;;;;5039428;28;20219;-75
2024/03/19 00:42:43;;;;;;;2.38;2.28;;;8.40;99.90;;;;;;5023314;28;20248;-77
2024/03/19 00:45:10;;;;;;;2.63;2.50;;;8.40;99.90;;;;;;5043891;28;20225;-78
2024/03/19 00:47:39;;;;;;;2.67;2.47;;;8.40;99.90;;;;;;5045547;28;20768;-77
2024/03/19 00:50:07;;;;;;;2.67;2.47;;;8.40;99.90;;;;;;5045435;28;20226;-76
2024/03/19 00:52:34;;;;;;;2.40;2.30;;;8.40;99.90;;;;;;5045749;28;20231;-75
2024/03/19 00:55:04;;;;;;;2.38;2.10;;;8.30;99.90;;;;;;5029718;28;20246;-75
2024/03/19 00:57:33;;;;;;;2.30;2.20;;;8.30;99.90;;;;;;5025615;28;20317;-76
2024/03/19 01:00:00;;;;;;;2.70;2.60;;;8.30;99.90;;;;;;5043773;28;20221;-78
2024/03/19 01:02:27;;;;;;;2.50;2.40;;;8.20;99.90;;;;;;5046120;28;20260;-75
2024/03/19 01:04:56;;;;;;;2.20;2.10;;;8.20;99.90;;;;;;5042319;28;20750;-76
2024/03/19 01:07:23;;;;;;;2.63;2.53;;;8.20;99.90;;;;;;5042418;28;20265;-77
2024/03/19 01:09:50;;;;;;;2.40;2.30;;;8.20;99.90;;;;;;5041089;28;20850;-79
2024/03/19 01:12:17;;;;;;;2.30;2.20;;;8.20;99.90;;;;;;5042320;28;20230;-77
2024/03/19 01:14:44;;;;;;;2.25;2.15;;;8.20;99.90;;;;;;5031011;28;20195;-77
2024/03/19 01:17:12;;;;;;;2.40;2.30;;;8.20;99.90;;;;;;5041631;28;20222;-76
2024/03/19 01:19:39;;;;;;;2.38;2.17;;;8.20;99.90;;;;;;5023995;28;20238;-75
2024/03/19 01:22:09;;;;;;;2.42;2.33;;;8.20;99.90;;;;;;5045879;28;20285;-75
2024/03/19 01:24:37;;;;;;;2.17;2.08;;;8.10;99.90;;;;;;5024745;28;20227;-76
2024/03/19 01:27:06;;;;;;;2.63;2.53;;;8.10;99.90;;;;;;5043327;28;20328;-74
2024/03/19 01:29:37;;;;;;;2.30;2.20;;;8.10;99.90;;;;;;5044966;28;20258;-73
2024/03/19 01:32:05;;;;;;;2.50;2.35;;;8.10;99.90;;;;;;5044631;28;20225;-74
2024/03/19 01:34:32;;;;;;;2.60;2.50;;;8.00;99.90;;;;;;5044784;28;20242;-74
2024/03/19 01:36:59;;;;;;;2.35;2.20;;;8.00;99.90;;;;;;5046202;28;20227;-74
2024/03/19 01:39:28;;;;;;;2.40;2.30;;;8.00;99.90;;;;;;5044209;28;20241;-78
2024/03/19 01:41:55;;;;;;;2.28;2.17;;;8.00;99.90;;;;;;5038091;28;20225;-79
2024/03/19 01:44:23;;;;;;;2.53;2.42;;;8.00;99.90;;;;;;5011801;28;20205;-73
2024/03/19 01:46:50;;;;;;;2.85;2.65;;;8.00;99.90;;;;;;5048877;28;20253;-74
2024/03/19 01:49:18;;;;;;;2.33;2.22;;;7.90;99.90;;;;;;5032845;28;20219;-76
2024/03/19 01:51:46;;;;;;;2.42;2.33;;;8.00;99.90;;;;;;5043225;28;21119;-74
2024/03/19 01:54:13;;;;;;;2.70;2.50;;;7.90;99.90;;;;;;5050768;28;20761;-73
2024/03/19 01:56:42;;;;;;;2.90;2.50;;;8.20;99.90;;;;;;5048937;28;20321;-77
2024/03/19 01:59:09;;;;;;;2.40;2.30;;;8.30;99.90;;;;;;5031053;28;20242;-73
2024/03/19 02:01:36;;;;;;;2.60;2.50;;;8.30;99.90;;;;;;5045140;28;20313;-77
2024/03/19 02:04:04;;;;;;;2.45;2.35;;;8.30;99.90;;;;;;5028155;28;20293;-74
2024/03/19 02:06:31;;;;;;;2.50;2.40;;;8.20;99.90;;;;;;5045359;28;20245;-73
2024/03/19 02:08:59;;;;;;;2.55;2.38;;;8.10;99.90;;;;;;5029206;28;20253;-75
2024/03/19 02:11:27;;;;;;;2.42;2.33;;;8.10;99.90;;;;;;5049917;28;20246;-74
2024/03/19 02:13:56;;;;;;;2.13;2.03;;;8.10;99.90;;;;;;5049921;28;20215;-75
2024/03/19 02:16:23;;;;;;;2.40;2.30;;;8.10;99.90;;;;;;5046711;28;21471;-74
2024/03/19 02:18:57;;;;;;;2.38;2.17;;;8.00;99.90;;;;;;5050308;28;20288;-72
2024/03/19 02:21:25;;;;;;;2.28;2.17;;;8.00;99.90;;;;;;5047852;28;20218;-74
2024/03/19 02:23:56;;;;;;;2.78;2.58;;;8.00;99.90;;;;;;5043967;28;20932;-74
2024/03/19 02:26:23;;;;;;;2.80;2.60;;;8.00;99.90;;;;;;5048926;28;20230;-73
2024/03/19 02:28:50;;;;;;;3.78;2.70;;;8.00;99.90;;;;;;5048483;28;20210;-76
2024/03/19 02:31:17;;;;;;;2.50;2.40;;;7.90;99.90;;;;;;5045386;28;20245;-73
2024/03/19 02:33:44;;;;;;;2.55;2.40;;;7.90;99.90;;;;;;5046448;28;20214;-73
2024/03/19 02:36:12;;;;;;;3.10;2.90;;;7.90;99.90;;;;;;5024112;28;20944;-74
2024/03/19 02:38:39;;;;;;;2.45;2.35;;;7.90;99.90;;;;;;5043651;28;20205;-75
2024/03/19 02:41:08;;;;;;;2.15;2.05;;;7.90;99.90;;;;;;5048859;28;20237;-75
2024/03/19 02:43:35;;;;;;;2.65;2.55;;;7.80;99.90;;;;;;5033088;28;20226;-75
2024/03/19 02:46:02;;;;;;;2.40;2.30;;;7.80;99.90;;;;;;5045550;28;20229;-76
2024/03/19 02:48:30;;;;;;;2.35;2.25;;;7.80;99.90;;;;;;5054427;28;20235;-75
2024/03/19 02:50:57;;;;;;;2.30;2.20;;;7.80;99.90;;;;;;5047293;28;20253;-75
2024/03/19 02:53:26;;;;;;;2.40;2.30;;;7.90;99.90;;;;;;5045359;28;20284;-73
2024/03/19 02:55:53;;;;;;;2.17;2.08;;;7.80;99.90;;;;;;5052462;28;20835;-73
2024/03/19 02:58:22;;;;;;;2.58;2.45;;;7.80;99.90;;;;;;5047659;28;20239;-73
2024/03/19 03:00:50;;;;;;;2.40;2.30;;;7.80;99.90;;;;;;5027193;28;20214;-76
2024/03/19 03:03:17;;;;;;;2.30;2.20;;;7.80;99.90;;;;;;5026613;28;20218;-74
2024/03/19 03:05:45;;;;;;;2.67;2.47;;;7.80;99.90;;;;;;5026019;28;20222;-76
2024/03/19 03:08:13;;;;;;;2.15;2.05;;;7.70;99.90;;;;;;5046229;28;20219;-74
2024/03/19 03:10:41;;;;;;;2.38;2.28;;;7.70;99.90;;;;;;5043936;28;20879;-74
2024/03/19 03:13:08;;;;;;;2.55;2.38;;;7.70;99.90;;;;;;5047038;28;20268;-75
2024/03/19 03:15:36;;;;;;;2.40;2.20;;;7.70;99.90;;;;;;5031625;28;22608;-73
2024/03/19 03:18:04;;;;;;;2.15;2.05;;;7.70;99.90;;;;;;5044219;28;20280;-73
2024/03/19 03:20:31;;;;;;;2.40;2.30;;;7.60;99.90;;;;;;5049865;28;20281;-73
2024/03/19 03:22:58;;;;;;;2.00;1.90;;;7.60;99.90;;;;;;5047014;28;20281;-74
2024/03/19 03:25:26;;;;;;;2.25;2.15;;;7.60;99.90;;;;;;5030755;28;20237;-73
2024/03/19 03:27:54;;;;;;;2.22;2.13;;;7.60;99.90;;;;;;5045759;28;20649;-73
2024/03/19 03:30:22;;;;;;;2.63;2.53;;;7.60;99.90;;;;;;5042508;28;20246;-74
2024/03/19 03:32:51;;;;;;;2.30;2.20;;;7.60;99.90;;;;;;5042916;28;20314;-73
2024/03/19 03:35:19;;;;;;;2.30;2.20;;;7.70;99.90;;;;;;5022289;28;20218;-74
2024/03/19 03:37:46;;;;;;;2.78;2.47;;;7.70;99.90;;;;;;5039543;28;20246;-75
2024/03/19 03:40:17;;;;;;;2.33;2.22;;;7.70;99.90;;;;;;5044287;28;20238;-75
2024/03/19 03:42:44;;;;;;;2.55;2.45;;;7.60;99.90;;;;;;5045246;28;20215;-74
2024/03/19 03:45:12;;;;;;;2.38;2.28;;;7.50;99.90;;;;;;5030916;28;20225;-74
2024/03/19 03:47:39;;;;;;;2.70;2.60;;;7.40;99.90;;;;;;5047185;28;20224;-75
2024/03/19 03:50:10;;;;;;;2.30;2.20;;;7.40;99.90;;;;;;5048825;28;20252;-75
2024/03/19 03:52:38;;;;;;;2.35;2.25;;;7.30;99.90;;;;;;5045154;28;20223;-74
2024/03/19 03:55:06;;;;;;;2.35;2.25;;;7.40;99.90;;;;;;5044932;28;20222;-75
2024/03/19 03:57:35;;;;;;;2.70;2.50;;;7.40;99.90;;;;;;5040040;28;20246;-74
2024/03/19 04:00:08;;;;;;;2.35;2.25;;;7.30;99.90;;;;;;5047603;28;20222;-74
2024/03/19 04:02:35;;;;;;;2.60;2.50;;;7.30;99.90;;;;;;5047831;28;20231;-73
2024/03/19 04:05:02;;;;;;;2.42;2.33;;;7.30;99.90;;;;;;5019565;28;20233;-74
2024/03/19 04:07:31;;;;;;;2.17;2.08;;;7.20;99.90;;;;;;5022475;28;20896;-75
2024/03/19 04:09:58;;;;;;;2.30;2.20;;;7.20;99.90;;;;;;5043500;28;20223;-75
2024/03/19 04:12:25;;;;;;;2.28;2.13;;;7.30;99.90;;;;;;5043119;28;20229;-74
2024/03/19 04:14:52;;;;;;;2.30;2.20;;;7.20;99.90;;;;;;5044944;28;20262;-76
2024/03/19 04:17:21;;;;;;;2.50;2.40;;;7.20;99.90;;;;;;5047353;28;20214;-73
2024/03/19 04:19:48;;;;;;;2.47;2.38;;;7.20;99.90;;;;;;5048518;28;20696;-74
2024/03/19 04:22:16;;;;;;;2.45;2.28;;;7.20;99.90;;;;;;5047579;28;20281;-74
2024/03/19 04:24:44;;;;;;;2.40;2.30;;;7.20;99.90;;;;;;5044918;28;20233;-75
2024/03/19 04:27:10;;;;;;;2.30;2.20;;;7.20;99.90;;;;;;5040656;28;20809;-73
2024/03/19 04:29:37;;;;;;;2.20;2.10;;;7.20;99.90;;;;;;5045493;28;20549;-73
2024/03/19 04:32:07;;;;;;;2.28;2.17;;;7.20;99.90;;;;;;5045678;28;20225;-74
2024/03/19 04:34:34;;;;;;;2.50;2.30;;;7.20;99.90;;;;;;5026355;28;20646;-74
2024/03/19 04:37:01;;;;;;;2.28;2.17;;;7.20;99.90;;;;;;5021025;28;20234;-74
2024/03/19 04:39:28;;;;;;;2.38;2.28;;;7.20;99.90;;;;;;5028095;28;20218;-77
2024/03/19 04:41:57;;;;;;;2.22;2.13;;;7.20;99.90;;;;;;5041586;28;20222;-76
2024/03/19 04:44:24;;;;;;;2.22;2.13;;;7.20;99.90;;;;;;5042565;28;21115;-74
2024/03/19 04:46:52;;;;;;;2.10;2.00;;;7.20;99.90;;;;;;5029954;28;20322;-76
2024/03/19 04:49:19;;;;;;;2.47;2.38;;;7.20;99.90;;;;;;5048398;28;20218;-76
2024/03/19 04:51:46;;;;;;;2.35;2.25;;;7.20;99.90;;;;;;5049430;28;20806;-76
2024/03/19 04:54:13;;;;;;;2.58;2.47;;;7.20;99.90;;;;;;5046415;28;20313;-76
2024/03/19 04:56:41;;;;;;;2.08;1.98;;;7.20;99.90;;;;;;5042082;28;20387;-76
2024/03/19 04:59:10;;;;;;;2.00;1.90;;;7.20;99.90;;;;;;5043508;28;20258;-74
2024/03/19 05:01:39;;;;;;;2.40;2.20;;;7.20;99.90;;;;;;5038478;28;20311;-74
2024/03/19 05:04:06;;;;;;;2.20;2.10;;;7.20;99.90;;;;;;5024218;28;20691;-76
2024/03/19 05:06:34;;;;;;;2.00;1.90;;;7.10;99.90;;;;;;5038479;28;20302;-74
2024/03/19 05:09:00;;;;;;;2.15;2.05;;;7.20;99.90;;;;;;5031426;28;20700;-74
2024/03/19 05:11:28;;;;;;;3.00;2.80;;;7.10;99.90;;;;;;5029731;28;20732;-73
2024/03/19 05:13:55;;;;;;;2.60;2.50;;;7.10;99.90;;;;;;5049712;28;20266;-74
2024/03/19 05:16:23;;;;;;;2.40;2.30;;;7.10;99.90;;;;;;5049699;28;20246;-75
2024/03/19 05:18:50;;;;;;;2.65;2.55;;;7.10;99.90;;;;;;5049961;28;20326;-74
2024/03/19 05:21:19;;;;;;;2.35;2.20;;;7.10;99.90;;;;;;5044323;28;20342;-73
2024/03/19 05:23:47;;;;;;;2.13;2.03;;;7.10;99.90;;;;;;5049123;28;20349;-74
2024/03/19 05:26:14;;;;;;;2.75;2.63;;;7.10;99.90;;;;;;5046416;28;20716;-74
2024/03/19 05:28:41;;;;;;;2.40;2.30;;;7.00;99.90;;;;;;5049515;28;20233;-73
2024/03/19 05:31:21;;;;;;;2.22;2.13;;;7.00;99.90;;;;;;5045556;28;20330;-76
2024/03/19 05:33:52;;;;;;;2.60;2.50;;;7.00;99.90;;;;;;5043246;28;20709;-76
2024/03/19 05:36:19;;;;;;;2.70;2.60;;;7.00;99.90;;;;;;5045202;28;20320;-73
2024/03/19 05:38:47;;;;;;;2.80;2.60;;;7.00;99.90;;;;;;5029428;28;20253;-75
2024/03/19 05:41:14;;;;;;;2.58;2.47;;;7.00;99.90;;;;;;5029118;28;20244;-73
2024/03/19 05:43:42;;;;;;;2.60;2.40;;;7.00;99.90;;;;;;5048401;28;20223;-73
2024/03/19 05:46:09;;;;;;;2.67;2.58;;;7.10;99.90;;;;;;5044023;28;20719;-74
2024/03/19 05:48:37;;;;;;;2.45;2.35;;;7.10;99.90;;;;;;5026069;28;20250;-74
2024/03/19 05:51:07;;;;;;;2.63;2.53;;;7.10;99.90;;;;;;5050167;28;20249;-73
2024/03/19 05:53:35;;;;;;;2.45;2.35;;;7.10;99.90;;;;;;5031045;28;20256;-73
2024/03/19 05:56:02;;;;;;;2.50;2.40;;;7.10;99.90;;;;;;5050236;28;20241;-76
2024/03/19 05:58:29;;;;;;;2.30;2.20;;;7.10;99.90;;;;;;5030756;28;20746;-75
2024/03/19 06:00:58;;;;;;;2.50;2.30;;;7.20;99.90;;;;;;5040158;28;20220;-75
2024/03/19 06:03:25;;;;;;;2.13;2.03;;;7.20;99.90;;;;;;5041603;28;20222;-75
2024/03/19 06:05:52;;;;;;;2.30;2.20;;;7.30;99.90;;;;;;5049329;28;20286;-75
2024/03/19 06:08:21;;;;;;;1.98;1.90;;;7.20;99.90;;;;;;5028077;28;20218;-73
2024/03/19 06:10:48;;;;;;;2.53;2.40;;;7.30;99.90;;;;;;5046418;28;20276;-74
2024/03/19 06:13:15;;;;;;;2.28;2.17;;;7.20;99.90;;;;;;5040329;28;20219;-75
2024/03/19 06:15:42;;;;;;;2.10;2.00;;;7.30;99.90;;;;;;5030562;28;20282;-75
2024/03/19 06:18:09;;;;;;;2.00;1.90;;;7.60;99.90;;;;;;5009389;28;20228;-75
2024/03/19 06:20:37;;;;;;;2.35;2.10;;;8.30;99.90;;;;;;5044080;28;20234;-74
2024/03/19 06:23:05;;;;;;;2.38;2.28;;;8.90;99.90;;;;;;5048569;28;20601;-73
2024/03/19 06:25:34;;;;;;;2.35;2.25;;;9.60;99.90;;;;;;5051471;28;20285;-74
2024/03/19 06:28:01;;;;;;;2.45;2.35;;;10.10;99.90;;;;;;5013628;28;20288;-78
2024/03/19 06:30:30;;;;;;;2.60;2.50;;;10.50;99.90;;;;;;5025636;28;20238;-76
2024/03/19 06:32:57;;;;;;;2.28;2.15;;;10.80;99.90;;;;;;5045624;28;20223;-78
2024/03/19 06:35:24;;;;;;;2.30;2.10;;;10.90;99.90;;;;;;5048509;28;20294;-78
2024/03/19 06:37:53;;;;;;;2.17;2.08;;;11.00;99.90;;;;;;5026430;28;20227;-77
2024/03/19 06:40:21;;;;;;;2.33;2.22;;;11.40;99.90;;;;;;5020717;28;20315;-75
2024/03/19 06:42:49;;;;;;;2.20;2.10;;;11.70;99.90;;;;;;5049980;28;20221;-77
2024/03/19 06:45:17;;;;;;;2.10;2.00;;;11.90;99.90;;;;;;5048614;28;20258;-77
2024/03/19 06:47:44;;;;;;;2.38;1.85;;;12.00;99.90;;;;;;5051359;28;20308;-73
2024/03/19 06:50:13;;;;;;;2.63;2.33;;;12.20;99.90;;;;;;5045225;28;20233;-76
2024/03/19 06:52:43;;;;;;;2.58;2.40;;;12.50;99.90;;;;;;5047759;28;20237;-78
2024/03/19 06:55:11;;;;;;;2.97;2.72;;;12.80;99.90;;;;;;5048726;28;20219;-74
2024/03/19 06:57:39;;;;;;;2.58;2.40;;;13.20;99.90;;;;;;5047627;28;20222;-75
2024/03/19 07:00:13;;;;;;;2.70;2.50;;;13.50;99.90;;;;;;5028430;28;20250;-77
2024/03/19 07:02:44;;;;;;;3.15;2.50;;;13.80;99.90;;;;;;5026934;28;20216;-75
2024/03/19 07:05:12;;;;;;;2.80;2.60;;;14.10;99.90;;;;;;5045083;28;20569;-77
2024/03/19 07:07:39;;;;;;;2.47;2.38;;;14.50;99.90;;;;;;5045634;28;20747;-75
2024/03/19 07:10:10;;;;;;;2.60;2.40;;;14.90;99.90;;;;;;5027223;28;20225;-77
2024/03/19 07:12:37;;;;;;;2.60;2.40;;;15.20;99.90;;;;;;5048417;28;20326;-76
2024/03/19 07:15:10;;;;;;;2.80;2.53;;;15.30;99.90;;;;;;5032503;28;20226;-77
2024/03/19 07:17:39;;;;;;;2.55;2.35;;;15.30;99.90;;;;;;5034675;28;20815;-76
2024/03/19 07:20:09;;;;;;;2.25;2.15;;;15.30;99.90;;;;;;5050953;28;20218;-76
2024/03/19 07:22:38;;;;;;;2.20;2.10;;;15.30;99.90;;;;;;5044878;28;20219;-76
2024/03/19 07:25:08;;;;;;;2.00;1.90;;;15.50;99.90;;;;;;5049434;28;20253;-75
2024/03/19 07:27:39;;;;;;;2.30;2.10;;;15.70;99.90;;;;;;5045237;28;20234;-77
2024/03/19 07:30:08;;;;;;;2.17;2.00;;;15.70;99.90;;;;;;5044454;28;20269;-77
2024/03/19 07:32:35;;;;;;;2.38;2.22;;;15.70;99.90;;;;;;5024206;28;20233;-78
2024/03/19 07:35:04;;;;;;;2.47;2.25;;;15.70;99.90;;;;;;5041732;28;20243;-78
2024/03/19 07:37:32;;;;;;;1.92;1.83;;;15.80;99.90;;;;;;5024953;28;20226;-76
2024/03/19 07:39:59;;;;;;;2.42;2.22;;;15.90;99.90;;;;;;5049297;28;20634;-77
2024/03/19 07:42:27;;;;;;;2.03;1.83;;;16.00;99.90;;;;;;5014165;28;20222;-74
2024/03/19 07:44:55;;;;;;;2.42;2.00;;;16.00;99.90;;;;;;5047642;28;20232;-74
2024/03/19 07:47:22;;;;;;;3.83;2.00;;;16.10;99.90;;;;;;5049702;28;20226;-75
2024/03/19 07:49:50;;;;;;;1.83;1.73;;;16.30;99.90;;;;;;5045251;28;20210;-75
2024/03/19 07:52:18;;;;;;;4.55;1.98;;;16.60;99.90;;;;;;5046327;28;20221;-75
2024/03/19 07:54:46;;;;;;;3.50;1.73;;;16.70;99.90;;;;;;5027155;28;20249;-77
2024/03/19 07:57:13;;;;;;;2.00;1.80;;;17.00;99.90;;;;;;5039633;28;20306;-76
2024/03/19 07:59:40;;;;;;;2.17;1.98;;;17.30;99.90;;;;;;5024192;28;20806;-74
2024/03/19 08:02:08;;;;;;;1.63;1.52;;;17.40;99.90;;;;;;5027079;28;20214;-75
2024/03/19 08:04:35;;;;;;;3.72;1.70;;;17.00;99.90;;;;;;5044572;28;20225;-76
2024/03/19 08:07:02;;;;;;;1.67;1.58;;;17.00;99.90;;;;;;5044489;28;20250;-76
2024/03/19 08:09:32;;;;;;;1.83;1.52;;;17.00;99.90;;;;;;5041536;28;20292;-75
2024/03/19 08:12:05;;;;;;;2.83;1.70;;;16.90;99.90;;;;;;5025676;28;20222;-75
2024/03/19 08:14:32;;;;;;;1.73;1.63;;;16.90;99.90;;;;;;5031535;28;20286;-80
2024/03/19 08:16:59;;;;;;;1.92;1.80;;;16.90;99.90;;;;;;5047840;28;20290;-74
2024/03/19 08:19:27;;;;;;;2.45;2.25;;;16.70;99.90;;;;;;5043650;28;20238;-76
2024/03/19 08:21:54;;;;;;;2.10;2.00;;;16.50;99.90;;;;;;5024881;28;20296;-74
2024/03/19 08:24:22;;;;;;;2.40;1.80;;;16.20;99.90;;;;;;5040854;28;20239;-75
2024/03/19 08:26:51;;;;;;;2.20;2.00;;;16.30;99.90;;;;;;5043717;28;20297;-75
2024/03/19 08:29:18;;;;;;;2.00;1.90;;;16.40;99.90;;;;;;5039584;28;20246;-75
2024/03/19 08:31:45;;;;;;;2.95;1.90;;;16.60;99.90;;;;;;5040652;28;20219;-76
2024/03/19 08:34:13;;;;;;;2.05;1.90;;;16.50;99.90;;;;;;5049171;28;20239;-76
2024/03/19 08:36:41;;;;;;;4.95;2.15;;;16.60;99.90;;;;;;5020803;28;20227;-76
2024/03/19 08:39:09;;;;;;;1.92;1.80;;;16.90;99.90;;;;;;5042449;28;20203;-75
2024/03/19 08:41:36;;;;;;;2.03;1.80;;;17.20;99.90;;;;;;5039539;28;20234;-74
2024/03/19 08:44:05;;;;;;;1.98;1.77;;;17.40;99.90;;;;;;5025615;28;20227;-75
2024/03/19 08:46:32;;;;;;;3.05;2.25;;;17.50;99.90;;;;;;5040732;28;20283;-76
2024/03/19 08:48:59;;;;;;;2.30;2.10;;;17.70;99.90;;;;;;5043139;28;20227;-74
2024/03/19 08:51:30;;;;;;;2.33;1.98;;;17.80;99.90;;;;;;5042480;28;20301;-75
2024/03/19 08:53:57;;;;;;;1.92;1.75;;;17.90;99.90;;;;;;5025644;28;20219;-76
2024/03/19 08:56:24;;;;;;;1.90;1.80;;;17.70;99.90;;;;;;5043139;28;20269;-75
2024/03/19 08:58:54;;;;;;;4.35;1.90;;;17.70;99.90;;;;;;5044515;28;20281;-77
2024/03/19 09:01:22;;;;;;;1.88;1.60;;;17.70;99.90;;;;;;5039858;28;20225;-76
2024/03/19 09:03:51;;;;;;;1.42;1.33;;;17.90;99.90;;;;;;5021671;28;20989;-76
2024/03/19 09:06:20;;;;;;;3.13;1.90;;;17.90;99.90;;;;;;5029531;28;20241;-77
2024/03/19 09:08:47;;;;;;;2.85;1.52;;;17.90;99.90;;;;;;5028768;28;20209;-77
2024/03/19 09:11:14;;;;;;;2.55;1.63;;;17.90;99.90;;;;;;5042030;28;20281;-78
2024/03/19 09:13:41;;;;;;;1.77;1.60;;;17.70;99.90;;;;;;5040073;28;20282;-76
2024/03/19 09:16:08;;;;;;;1.52;1.38;;;17.70;99.90;;;;;;5045441;28;20223;-78
2024/03/19 09:18:39;;;;;;;3.95;1.92;;;17.90;99.90;;;;;;5042364;28;20242;-76
2024/03/19 09:21:07;;;;;;;4.18;1.88;;;17.80;99.90;;;;;;5027411;28;20230;-78
2024/03/19 09:23:35;;;;;;;2.20;1.65;;;18.00;99.90;;;;;;5044117;28;20202;-77
2024/03/19 09:26:03;;;;;;;1.85;1.70;;;18.10;99.90;;;;;;5038788;28;20709;-77
2024/03/19 09:28:31;;;;;;;1.48;1.33;;;18.00;99.90;;;;;;5045379;28;20214;-81
2024/03/19 09:30:59;;;;;;;1.52;1.42;;;18.00;99.90;;;;;;5027735;28;20223;-77
2024/03/19 09:33:26;;;;;;;1.70;1.60;;;18.00;99.90;;;;;;5030455;28;20229;-77
2024/03/19 09:35:55;;;;;;;2.40;1.70;;;17.90;99.90;;;;;;5044797;28;20329;-77
2024/03/19 09:38:22;;;;;;;1.73;1.63;;;18.00;99.90;;;;;;5044969;28;20226;-78
2024/03/19 09:40:55;;;;;;;1.30;1.20;;;18.10;99.90;;;;;;5049646;28;20227;-78
2024/03/19 09:43:24;;;;;;;1.55;1.40;;;18.20;99.90;;;;;;5044338;28;20298;-80
2024/03/19 09:45:52;;;;;;;1.30;1.20;;;18.40;99.90;;;;;;5029813;28;20234;-79
2024/03/19 09:48:21;;;;;;;1.25;1.23;;;18.60;99.90;;;;;;5044362;28;20234;-78
2024/03/19 09:50:49;;;;;;;1.20;1.17;;;18.70;99.90;;;;;;5042079;28;20215;-78
2024/03/19 09:53:21;;;;;;;1.25;1.15;;;18.70;99.90;;;;;;5043591;28;20846;-77
2024/03/19 09:55:48;;;;;;;1.33;1.23;;;18.60;99.90;;;;;;5017383;28;20233;-79
2024/03/19 09:58:16;;;;;;;2.45;1.60;;;18.60;99.90;;;;;;5046001;28;20636;-78
2024/03/19 10:00:46;;;;;;;2.88;1.50;;;18.50;99.90;;;;;;5049141;28;20272;-79
2024/03/19 10:03:13;;;;;;;1.77;1.42;;;18.60;99.90;;;;;;5054172;28;20234;-78
2024/03/19 10:05:40;;;;;;;1.40;1.30;;;18.80;99.90;;;;;;5049841;28;20738;-79
2024/03/19 10:08:07;;;;;;;1.30;1.20;;;18.90;99.90;;;;;;5032218;28;20612;-77
2024/03/19 10:10:36;;;;;;;1.75;1.30;;;19.10;99.90;;;;;;5044140;28;20273;-76
2024/03/19 10:13:04;;;;;;;2.25;1.70;;;19.20;99.90;;;;;;5036105;28;20249;-78
2024/03/19 10:15:31;;;;;;;2.83;1.38;;;19.20;99.90;;;;;;5030548;28;20218;-78
2024/03/19 10:18:01;;;;;;;3.75;1.80;;;19.20;99.90;;;;;;5036162;28;20242;-79
2024/03/19 10:20:32;;;;;;;1.48;1.25;;;19.40;99.90;;;;;;5052568;28;20213;-78
2024/03/19 10:23:02;;;;;;;1.30;1.15;;;19.60;99.90;;;;;;5042738;28;20215;-77
2024/03/19 10:25:32;;;;;;;1.33;1.10;;;19.90;99.90;;;;;;5049623;28;20223;-77
2024/03/19 10:28:06;;;;;;;1.13;1.02;;;20.00;99.90;;;;;;5046630;28;20258;-77
2024/03/19 10:30:33;;;;;;;1.10;1.00;;;20.20;99.90;;;;;;5048204;28;20242;-77
2024/03/19 10:33:07;;;;;;;1.10;0.90;;;20.40;99.90;;;;;;5043823;28;20225;-77
2024/03/19 10:35:37;;;;;;;1.20;1.10;;;20.70;99.90;;;;;;5049675;28;20309;-77
2024/03/19 10:38:06;;;;;;;1.92;1.40;;;20.80;99.90;;;;;;5043169;28;20254;-77
2024/03/19 10:40:35;;;;;;;1.10;1.10;;;20.60;99.90;;;;;;5046565;28;20411;-77
2024/03/19 10:43:04;;;;;;;1.85;1.20;;;20.60;99.90;;;;;;5011615;28;20226;-76
2024/03/19 10:45:34;;;;;;;3.10;1.20;;;20.80;99.90;;;;;;5018352;28;20275;-77
2024/03/19 10:48:02;;;;;;;1.27;1.17;;;20.90;99.90;;;;;;5047482;28;20248;-77
2024/03/19 10:50:30;;;;;;;1.30;1.20;;;21.10;99.90;;;;;;5046214;28;20217;-77
2024/03/19 10:53:01;;;;;;;2.05;1.08;;;21.60;99.90;;;;;;5044335;28;20227;-77
2024/03/19 10:55:30;;;;;;;1.23;1.10;;;21.80;99.90;;;;;;5045552;28;20226;-76
2024/03/19 10:58:01;;;;;;;1.10;1.00;;;21.80;99.90;;;;;;5032154;28;20232;-77
2024/03/19 11:00:31;;;;;;;0.93;0.93;;;21.70;99.90;;;;;;5044243;28;20223;-77
2024/03/19 11:02:59;;;;;;;1.40;0.90;;;21.40;99.90;;;;;;5030712;28;20226;-77
2024/03/19 11:05:27;;;;;;;1.13;0.90;;;21.20;99.90;;;;;;5048870;28;20219;-77
2024/03/19 11:07:56;;;;;;;0.80;0.80;;;21.10;99.90;;;;;;5043583;28;20234;-76
2024/03/19 11:10:27;;;;;;;1.15;1.00;;;20.90;99.90;;;;;;5048028;28;20891;-77
2024/03/19 11:12:59;;;;;;;1.98;0.85;;;21.10;99.90;;;;;;5049756;28;20255;-77
2024/03/19 11:15:30;;;;;;;1.17;1.10;;;21.30;99.90;;;;;;5028555;28;20222;-77
2024/03/19 11:17:59;;;;;;;1.80;0.90;;;21.40;99.90;;;;;;5048776;28;20215;-76
2024/03/19 11:20:31;;;;;;;1.10;0.80;;;21.20;99.90;;;;;;5047258;28;20241;-77
2024/03/19 11:22:59;;;;;;;0.82;0.82;;;21.20;99.90;;;;;;5039875;28;20281;-76
2024/03/19 11:25:28;;;;;;;1.58;0.82;;;21.40;99.90;;;;;;5029169;28;20223;-76
2024/03/19 11:27:56;;;;;;;0.88;0.88;;;21.40;99.90;;;;;;5027396;28;20218;-77
2024/03/19 11:30:23;;;;;;;0.80;0.80;;;21.10;99.90;;;;;;5045208;28;20269;-76
2024/03/19 11:32:51;;;;;;;0.80;0.80;;;20.80;99.90;;;;;;5045779;28;20238;-76
2024/03/19 11:35:21;;;;;;;0.80;0.80;;;20.60;99.90;;;;;;5035659;28;20225;-77
2024/03/19 11:37:52;;;;;;;0.88;0.88;;;20.60;99.90;;;;;;5041079;28;20279;-76
2024/03/19 11:40:23;;;;;;;0.80;0.80;;;20.70;99.90;;;;;;5027768;28;20271;-75
2024/03/19 11:42:52;;;;;;;1.70;0.93;;;20.80;99.90;;;;;;5040113;28;20231;-76
2024/03/19 11:45:20;;;;;;;0.70;0.70;;;21.00;99.90;;;;;;5048554;28;20218;-76
2024/03/19 11:47:47;;;;;;;1.00;0.93;;;20.90;99.90;;;;;;5043044;28;20247;-75
2024/03/19 11:50:20;;;;;;;0.82;0.80;;;20.80;99.90;;;;;;5039067;28;20246;-74
2024/03/19 11:52:48;;;;;;;0.80;0.80;;;20.70;99.90;;;;;;5040912;28;20552;-75
2024/03/19 11:55:20;;;;;;;0.95;0.90;;;20.70;99.90;;;;;;5041380;28;20219;-73
2024/03/19 11:57:49;;;;;;;0.98;0.98;;;20.80;99.90;;;;;;5041587;28;20223;-75
2024/03/19 12:00:16;;;;;;;1.05;0.80;;;20.80;99.90;;;;;;5046924;28;20250;-73
2024/03/19 12:02:44;;;;;;;0.93;0.82;;;21.00;99.90;;;;;;5046035;28;20242;-73
2024/03/19 12:05:15;;;;;;;0.95;0.80;;;21.20;99.90;;;;;;5047144;28;20218;-76
2024/03/19 12:07:49;;;;;;;0.80;0.80;;;21.40;99.90;;;;;;5040654;28;20246;-74
2024/03/19 12:10:23;;;;;;;0.70;0.70;;;21.40;99.90;;;;;;5036466;28;20219;-73
2024/03/19 12:12:55;;;;;;;0.80;0.80;;;21.40;99.90;;;;;;5024507;28;20218;-75
2024/03/19 12:15:25;;;;;;;0.95;0.75;;;21.60;99.90;;;;;;5024164;28;20258;-76
2024/03/19 12:17:54;;;;;;;0.80;0.80;;;21.60;99.90;;;;;;5018178;28;20751;-75
2024/03/19 12:20:22;;;;;;;1.90;0.90;;;21.60;99.90;;;;;;5020501;28;20720;-77
2024/03/19 12:22:52;;;;;;;1.23;0.80;;;21.40;99.90;;;;;;5017609;28;20222;-75
2024/03/19 12:25:23;;;;;;;0.70;0.68;;;21.20;99.90;;;;;;5024758;28;20218;-74
2024/03/19 12:27:51;;;;;;;0.70;0.70;;;21.10;99.90;;;;;;5021204;28;20214;-74
2024/03/19 12:30:20;;;;;;;0.80;0.80;;;21.00;99.90;;;;;;5044402;28;20244;-73
2024/03/19 12:32:48;;;;;;;1.88;0.90;;;21.00;99.90;;;;;;5039575;28;20226;-75
2024/03/19 12:35:16;;;;;;;0.73;0.73;;;21.00;99.90;;;;;;5024673;28;20632;-73
2024/03/19 12:37:44;;;;;;;0.98;0.70;;;21.00;99.90;;;;;;5041578;28;20242;-74
2024/03/19 12:40:18;;;;;;;1.52;0.77;;;20.90;99.90;;;;;;5025708;28;20223;-74
2024/03/19 12:42:47;;;;;;;0.80;0.70;;;20.80;99.90;;;;;;5026281;28;20218;-75
2024/03/19 12:45:15;;;;;;;0.80;0.80;;;20.80;99.90;;;;;;5043468;28;20715;-74
2024/03/19 12:47:42;;;;;;;0.80;0.80;;;20.90;99.90;;;;;;5042539;28;20262;-72
2024/03/19 12:50:10;;;;;;;0.70;0.70;;;20.90;99.90;;;;;;5034458;28;20234;-72
2024/03/19 12:52:37;;;;;;;0.60;0.60;;;21.00;99.90;;;;;;5038105;28;20222;-73
2024/03/19 12:55:05;;;;;;;0.63;0.63;;;21.10;99.90;;;;;;5040687;28;20762;-72
2024/03/19 12:57:37;;;;;;;1.27;1.05;;;21.00;99.90;;;;;;5040122;28;20888;-72